Time;durP1;ratioP1;P1;durP2;ratioP2;P2;SDS_P1;SDS_P2;PMS_P1;PMS_P2;Temp;Humidity;BMP_temperature;BMP_pressure;BME280_temperature;BME280_humidity;BME280_pressure;Samples;Min_cycle;Max_cycle;Signal;HPM_P1;HPM_P2
2021/12/30 04:01:23;;;;;;;2.03;0.70;;;13.80;87.80;;;;;;5718500;22;20989;-75
2021/12/30 04:03:50;;;;;;;2.03;0.77;;;13.80;87.60;;;;;;5034103;28;20442;-75
2021/12/30 04:06:17;;;;;;;3.33;0.70;;;13.90;87.30;;;;;;5034044;28;20489;-75
2021/12/30 04:08:45;;;;;;;2.10;0.70;;;13.90;87.20;;;;;;5034033;28;20474;-75
2021/12/30 04:11:12;;;;;;;2.00;0.60;;;13.70;87.80;;;;;;5033803;28;20490;-75
2021/12/30 04:13:39;;;;;;;2.17;0.73;;;13.70;88.20;;;;;;5033905;28;20477;-75
2021/12/30 04:16:08;;;;;;;2.00;0.80;;;13.80;87.80;;;;;;5160639;22;20893;-75
2021/12/30 04:18:36;;;;;;;2.50;0.70;;;13.90;87.80;;;;;;5053784;28;20450;-73
2021/12/30 04:21:03;;;;;;;1.90;0.60;;;14.00;87.30;;;;;;5053732;28;20438;-74
2021/12/30 04:23:30;;;;;;;2.10;0.80;;;14.10;87.20;;;;;;5053349;28;20941;-73
2021/12/30 04:25:57;;;;;;;2.10;0.70;;;14.10;87.10;;;;;;5053539;28;20552;-74
2021/12/30 04:28:23;;;;;;;1.97;0.60;;;14.00;87.60;;;;;;5053618;28;20438;-74
2021/12/30 04:30:50;;;;;;;2.10;0.70;;;13.80;88.60;;;;;;5053511;28;20542;-73
2021/12/30 04:33:17;;;;;;;2.00;0.63;;;13.90;88.50;;;;;;5053677;28;20446;-74
2021/12/30 04:35:45;;;;;;;2.00;0.70;;;13.90;88.60;;;;;;5053566;28;20474;-74
2021/12/30 04:38:11;;;;;;;2.10;0.70;;;13.90;88.50;;;;;;5053249;28;20458;-72
2021/12/30 04:40:38;;;;;;;2.10;0.70;;;13.90;88.00;;;;;;5053143;28;20860;-73
2021/12/30 04:43:05;;;;;;;2.00;0.73;;;13.80;89.20;;;;;;5053497;28;20508;-73
2021/12/30 04:45:31;;;;;;;1.97;0.60;;;13.80;89.00;;;;;;5053240;28;20470;-74
2021/12/30 04:47:58;;;;;;;2.10;0.80;;;13.80;89.20;;;;;;5053386;28;20446;-74
2021/12/30 04:50:25;;;;;;;1.90;0.60;;;13.60;89.90;;;;;;5053313;28;20502;-73
2021/12/30 04:52:54;;;;;;;1.90;0.60;;;13.50;90.20;;;;;;5052625;28;20450;-74
2021/12/30 04:55:20;;;;;;;2.10;0.70;;;13.60;90.60;;;;;;5053184;28;20462;-74
2021/12/30 04:57:47;;;;;;;4.50;0.80;;;13.70;90.20;;;;;;5052929;28;20873;-74
2021/12/30 05:00:15;;;;;;;2.00;0.70;;;13.60;89.80;;;;;;5053300;28;20450;-74
2021/12/30 05:05:25;;;;;;;1.90;0.60;;;13.60;90.30;;;;;;5053270;28;20449;-74
2021/12/30 05:07:54;;;;;;;2.03;0.73;;;13.60;90.70;;;;;;5053219;28;20447;-74
2021/12/30 05:10:20;;;;;;;1.90;0.70;;;13.70;90.10;;;;;;5053222;28;20477;-73
2021/12/30 05:12:47;;;;;;;2.30;0.70;;;13.60;90.00;;;;;;5053168;28;20478;-74
2021/12/30 05:15:14;;;;;;;1.93;0.60;;;13.80;89.70;;;;;;5053024;28;20470;-74
2021/12/30 05:17:41;;;;;;;2.10;0.90;;;13.90;89.30;;;;;;5053159;28;20427;-73
2021/12/30 05:20:09;;;;;;;1.90;0.60;;;14.00;88.90;;;;;;5053067;28;20450;-74
2021/12/30 05:22:36;;;;;;;1.97;0.70;;;14.00;88.40;;;;;;5053097;28;20870;-74
2021/12/30 05:25:05;;;;;;;2.70;0.70;;;13.90;88.80;;;;;;5052723;28;20481;-74
2021/12/30 05:27:32;;;;;;;2.00;0.70;;;13.90;89.00;;;;;;5053022;28;20443;-74
2021/12/30 05:29:58;;;;;;;2.20;0.80;;;13.80;89.40;;;;;;5053008;28;20442;-73
2021/12/30 05:32:25;;;;;;;1.90;0.60;;;13.90;89.30;;;;;;5052914;28;20478;-73
2021/12/30 05:34:52;;;;;;;2.00;0.60;;;14.00;88.60;;;;;;5052893;28;20872;-74
2021/12/30 05:37:18;;;;;;;2.00;0.60;;;13.90;89.40;;;;;;5052892;28;20450;-74
2021/12/30 05:39:45;;;;;;;2.00;0.70;;;13.90;89.30;;;;;;5052914;28;20508;-74
2021/12/30 05:42:13;;;;;;;2.37;0.70;;;13.90;89.60;;;;;;5052848;28;20497;-74
2021/12/30 05:44:40;;;;;;;2.00;0.70;;;14.00;89.00;;;;;;5052828;28;20500;-74
2021/12/30 05:47:07;;;;;;;1.90;0.60;;;14.00;88.90;;;;;;5052943;28;20463;-74
2021/12/30 05:49:34;;;;;;;1.90;0.57;;;14.10;88.60;;;;;;5052699;28;20446;-73
2021/12/30 05:52:01;;;;;;;2.00;0.60;;;13.90;89.40;;;;;;5052727;28;20893;-74
2021/12/30 05:54:28;;;;;;;2.00;0.60;;;13.90;89.60;;;;;;5052810;28;20442;-74
2021/12/30 05:56:55;;;;;;;2.33;0.70;;;13.70;89.90;;;;;;5052682;28;20539;-74
2021/12/30 05:59:23;;;;;;;1.90;0.60;;;13.70;90.70;;;;;;5052411;28;21047;-74
2021/12/30 06:01:49;;;;;;;2.00;0.60;;;13.60;90.60;;;;;;5052369;28;20987;-74
2021/12/30 06:04:16;;;;;;;1.90;0.60;;;13.70;90.60;;;;;;5054468;28;20450;-74
2021/12/30 06:06:43;;;;;;;1.90;0.60;;;13.60;90.60;;;;;;5055911;28;20885;-74
2021/12/30 06:09:10;;;;;;;2.00;0.63;;;13.60;90.90;;;;;;5056174;28;20442;-74
2021/12/30 06:11:37;;;;;;;1.90;0.60;;;13.60;91.20;;;;;;5056048;28;20510;-74
2021/12/30 06:14:04;;;;;;;1.90;0.60;;;13.70;90.70;;;;;;5056135;28;20446;-74
2021/12/30 06:16:33;;;;;;;1.90;0.60;;;13.80;90.40;;;;;;5055828;28;20531;-74
2021/12/30 06:19:00;;;;;;;2.00;0.60;;;13.70;91.00;;;;;;5055667;28;20957;-74
2021/12/30 06:21:26;;;;;;;1.90;0.60;;;13.60;91.40;;;;;;5055984;28;20442;-74
2021/12/30 06:23:53;;;;;;;1.97;0.63;;;13.50;92.00;;;;;;5055982;28;20446;-74
2021/12/30 06:26:20;;;;;;;2.00;0.70;;;13.50;92.00;;;;;;5055859;28;20474;-74
2021/12/30 06:28:47;;;;;;;1.97;0.67;;;13.60;92.20;;;;;;5055861;28;20442;-74
2021/12/30 06:31:13;;;;;;;2.97;0.70;;;13.70;91.60;;;;;;5055721;28;20532;-74
2021/12/30 06:33:41;;;;;;;2.00;0.70;;;13.80;91.30;;;;;;5055712;28;20446;-74
2021/12/30 06:36:08;;;;;;;1.97;0.67;;;13.80;91.30;;;;;;5055321;28;20977;-74
2021/12/30 06:38:35;;;;;;;2.00;0.70;;;13.60;91.50;;;;;;5055669;28;20446;-74
2021/12/30 06:41:02;;;;;;;1.90;0.60;;;13.40;92.80;;;;;;5055224;28;20990;-74
2021/12/30 06:43:29;;;;;;;2.10;0.60;;;13.30;93.20;;;;;;5055552;28;20454;-74
2021/12/30 06:45:56;;;;;;;2.00;0.60;;;13.20;93.60;;;;;;5055454;28;20500;-74
2021/12/30 06:48:23;;;;;;;2.10;0.70;;;13.20;94.10;;;;;;5055146;28;20868;-74
2021/12/30 06:50:53;;;;;;;1.90;0.60;;;13.10;94.40;;;;;;5055459;28;20449;-75
2021/12/30 06:53:20;;;;;;;1.90;0.60;;;13.10;94.50;;;;;;5055327;28;20466;-74
2021/12/30 06:55:47;;;;;;;2.00;0.60;;;13.20;94.30;;;;;;5055264;28;20489;-74
2021/12/30 06:58:14;;;;;;;1.90;0.60;;;13.20;94.10;;;;;;5055266;28;20454;-74
2021/12/30 07:00:41;;;;;;;1.90;0.70;;;13.20;94.40;;;;;;5055259;28;20442;-75
2021/12/30 07:03:07;;;;;;;1.93;0.70;;;13.40;93.70;;;;;;5055143;28;20501;-75
2021/12/30 07:05:34;;;;;;;1.90;0.60;;;13.50;93.40;;;;;;5055126;28;20474;-75
2021/12/30 07:08:03;;;;;;;2.00;0.70;;;13.50;93.10;;;;;;5054811;28;20938;-75
2021/12/30 07:10:30;;;;;;;1.90;0.60;;;13.20;94.20;;;;;;5055087;28;20793;-75
2021/12/30 07:12:56;;;;;;;2.00;0.70;;;13.10;94.80;;;;;;5054660;28;20470;-75
2021/12/30 07:15:23;;;;;;;1.93;0.60;;;13.20;95.10;;;;;;5054241;28;20494;-75
2021/12/30 07:17:50;;;;;;;1.90;0.60;;;13.30;94.50;;;;;;5054923;28;20431;-75
2021/12/30 07:20:16;;;;;;;1.90;0.70;;;13.20;94.20;;;;;;5054897;28;20500;-75
2021/12/30 07:22:43;;;;;;;2.00;0.70;;;13.30;94.50;;;;;;5054827;28;20446;-75
2021/12/30 07:25:16;;;;;;;2.40;0.80;;;13.30;94.00;;;;;;5054949;28;20463;-75
2021/12/30 07:27:43;;;;;;;1.90;0.67;;;13.50;94.20;;;;;;5054439;28;20917;-75
2021/12/30 07:30:11;;;;;;;1.90;0.60;;;13.50;93.60;;;;;;5054672;28;20442;-75
2021/12/30 07:32:38;;;;;;;1.90;0.60;;;13.60;93.50;;;;;;5054500;28;20487;-74
2021/12/30 07:35:06;;;;;;;1.97;0.70;;;13.40;93.60;;;;;;5054503;28;20470;-75
2021/12/30 07:37:33;;;;;;;1.93;0.70;;;13.40;94.30;;;;;;5054278;28;20454;-74
2021/12/30 07:39:59;;;;;;;2.00;0.70;;;13.40;94.20;;;;;;5054362;28;20861;-75
2021/12/30 07:42:27;;;;;;;2.03;0.67;;;13.40;94.50;;;;;;5054398;28;20492;-74
2021/12/30 07:44:54;;;;;;;2.00;0.60;;;13.50;94.10;;;;;;5054313;28;20500;-75
2021/12/30 07:47:21;;;;;;;2.93;0.70;;;13.40;94.10;;;;;;5054314;28;20454;-74
2021/12/30 07:49:48;;;;;;;2.60;0.60;;;13.30;94.80;;;;;;5054656;28;20857;-74
2021/12/30 07:52:15;;;;;;;2.10;0.70;;;13.20;94.90;;;;;;5054186;28;20550;-75
2021/12/30 07:54:43;;;;;;;1.90;0.60;;;13.30;95.10;;;;;;5054219;28;20655;-74
2021/12/30 07:57:10;;;;;;;2.00;0.70;;;13.20;95.00;;;;;;5053885;28;20458;-74
2021/12/30 07:59:38;;;;;;;2.00;0.70;;;13.20;95.40;;;;;;5054130;28;20520;-74
2021/12/30 08:02:05;;;;;;;1.97;0.60;;;13.20;95.80;;;;;;5054080;28;20504;-74
2021/12/30 08:04:31;;;;;;;2.03;0.70;;;13.20;95.60;;;;;;5053830;28;20938;-75
2021/12/30 08:06:58;;;;;;;2.00;0.70;;;13.20;95.40;;;;;;5058246;28;20466;-74
2021/12/30 08:09:25;;;;;;;1.90;0.60;;;13.20;95.60;;;;;;5058928;28;20461;-74
2021/12/30 08:11:52;;;;;;;2.63;0.70;;;13.20;95.60;;;;;;5059328;28;20552;-74
2021/12/30 08:14:19;;;;;;;2.20;0.70;;;13.20;95.50;;;;;;5060098;28;20457;-74
2021/12/30 08:16:47;;;;;;;1.90;0.60;;;13.20;95.80;;;;;;5058851;28;20481;-74
2021/12/30 08:19:13;;;;;;;1.97;0.70;;;13.10;95.80;;;;;;5059738;28;20446;-73
2021/12/30 08:21:42;;;;;;;1.90;0.60;;;13.20;95.80;;;;;;5059899;28;20474;-74
2021/12/30 08:24:09;;;;;;;2.10;0.70;;;13.20;95.80;;;;;;5055329;28;20451;-74
2021/12/30 08:26:35;;;;;;;1.90;0.70;;;13.30;95.80;;;;;;5052887;28;20466;-74
2021/12/30 08:29:02;;;;;;;2.00;0.70;;;13.30;95.40;;;;;;5052911;28;20936;-75
2021/12/30 08:31:29;;;;;;;2.37;0.80;;;13.30;95.30;;;;;;5053658;28;20457;-74
2021/12/30 08:33:57;;;;;;;1.93;0.60;;;13.40;95.40;;;;;;5053548;28;20487;-75
2021/12/30 08:36:24;;;;;;;2.00;0.73;;;13.40;95.00;;;;;;5053475;28;20516;-74
2021/12/30 08:38:50;;;;;;;1.90;0.70;;;13.40;95.30;;;;;;5053351;28;20937;-74
2021/12/30 08:41:17;;;;;;;1.90;0.60;;;13.40;95.20;;;;;;5053502;28;20454;-74
2021/12/30 08:43:44;;;;;;;2.30;0.60;;;13.40;95.20;;;;;;5053484;28;20470;-74
2021/12/30 08:46:11;;;;;;;2.00;0.60;;;13.50;94.90;;;;;;5053373;28;20462;-75
2021/12/30 08:48:39;;;;;;;2.00;0.70;;;13.60;94.30;;;;;;5053499;28;20499;-75
2021/12/30 08:51:07;;;;;;;1.90;0.60;;;13.50;94.30;;;;;;5054229;28;20450;-75
2021/12/30 08:53:40;;;;;;;1.90;0.70;;;13.50;94.60;;;;;;5053302;28;20474;-75
2021/12/30 08:56:07;;;;;;;1.90;0.60;;;13.60;94.40;;;;;;5053235;28;20565;-76
2021/12/30 08:58:33;;;;;;;1.97;0.70;;;13.80;94.40;;;;;;5053282;28;20446;-77
2021/12/30 09:01:00;;;;;;;1.97;0.60;;;14.00;93.90;;;;;;5053029;28;20933;-77
2021/12/30 09:03:27;;;;;;;1.90;0.60;;;13.80;93.00;;;;;;5052921;28;20496;-77
2021/12/30 09:05:53;;;;;;;2.17;0.70;;;13.90;93.20;;;;;;5053213;28;20489;-77
2021/12/30 09:08:22;;;;;;;1.97;0.60;;;14.10;92.40;;;;;;5053131;28;20446;-75
2021/12/30 09:10:50;;;;;;;2.10;0.70;;;14.20;92.30;;;;;;5052851;28;20991;-75
2021/12/30 09:13:18;;;;;;;2.20;0.70;;;14.10;91.90;;;;;;5053087;28;20473;-75
2021/12/30 09:15:46;;;;;;;2.00;0.60;;;14.30;92.60;;;;;;5052982;28;20478;-75
2021/12/30 09:18:13;;;;;;;2.00;0.70;;;14.40;91.40;;;;;;5052835;28;21028;-75
2021/12/30 09:20:41;;;;;;;2.00;0.63;;;14.50;91.70;;;;;;5053124;28;20465;-75
2021/12/30 09:23:10;;;;;;;2.00;0.70;;;14.70;91.20;;;;;;5052760;28;20926;-75
2021/12/30 09:25:39;;;;;;;2.10;0.70;;;14.80;90.70;;;;;;5053003;28;20473;-74
2021/12/30 09:28:11;;;;;;;2.10;0.70;;;14.60;90.50;;;;;;5053587;28;20446;-75
2021/12/30 09:30:38;;;;;;;1.93;0.60;;;14.60;90.70;;;;;;5053571;28;20438;-75
2021/12/30 09:33:05;;;;;;;1.90;0.60;;;14.60;90.90;;;;;;5053560;28;20490;-74
2021/12/30 09:35:32;;;;;;;1.97;0.60;;;14.70;91.10;;;;;;5053583;28;20471;-75
2021/12/30 09:37:59;;;;;;;2.00;0.60;;;14.70;91.00;;;;;;5053005;28;20450;-74
2021/12/30 09:40:27;;;;;;;2.00;0.60;;;14.70;90.80;;;;;;5056730;28;20473;-74
2021/12/30 09:43:01;;;;;;;2.00;0.60;;;14.90;91.40;;;;;;5056843;28;20455;-75
2021/12/30 09:45:30;;;;;;;2.00;0.60;;;14.90;91.40;;;;;;5056983;28;20524;-74
2021/12/30 09:47:59;;;;;;;1.97;0.60;;;15.10;90.40;;;;;;5056828;28;20446;-74
2021/12/30 09:50:28;;;;;;;2.00;0.60;;;15.20;88.80;;;;;;5056591;28;20450;-74
2021/12/30 09:52:57;;;;;;;2.57;0.70;;;15.20;89.40;;;;;;5056489;28;20528;-74
2021/12/30 09:55:25;;;;;;;2.00;0.70;;;15.20;89.00;;;;;;5056336;28;20500;-73
2021/12/30 09:57:52;;;;;;;2.50;0.70;;;15.40;89.70;;;;;;5056130;28;20469;-75
2021/12/30 10:00:20;;;;;;;2.40;0.70;;;15.50;88.40;;;;;;5056174;28;20446;-75
2021/12/30 10:02:47;;;;;;;2.00;0.70;;;15.40;88.10;;;;;;5056172;28;20442;-75
2021/12/30 10:05:18;;;;;;;2.03;0.70;;;15.40;88.50;;;;;;5055868;28;20461;-74
2021/12/30 10:07:44;;;;;;;2.00;0.60;;;15.40;88.70;;;;;;5055952;28;20427;-75
2021/12/30 10:10:26;;;;;;;1.93;0.60;;;15.30;88.00;;;;;;5055790;28;20492;-74
2021/12/30 10:12:54;;;;;;;1.97;0.63;;;15.50;88.50;;;;;;5055856;28;20553;-74
2021/12/30 10:15:25;;;;;;;1.97;0.60;;;15.50;87.50;;;;;;5079992;22;20498;-76
2021/12/30 10:17:56;;;;;;;2.00;0.60;;;15.60;87.60;;;;;;5016325;28;20455;-76
2021/12/30 10:20:27;;;;;;;2.07;0.70;;;15.70;87.00;;;;;;5015977;28;20479;-75
2021/12/30 10:22:55;;;;;;;2.00;0.70;;;15.60;87.30;;;;;;5016542;28;20439;-75
2021/12/30 10:25:30;;;;;;;1.97;0.60;;;15.90;87.50;;;;;;5015865;28;20849;-76
2021/12/30 10:28:17;;;;;;;2.00;0.70;;;16.10;86.50;;;;;;5016495;28;20912;-76
2021/12/30 10:30:46;;;;;;;2.00;0.70;;;16.20;85.80;;;;;;5016240;28;20450;-76
2021/12/30 10:33:15;;;;;;;2.10;0.80;;;15.90;85.40;;;;;;5016280;28;20491;-76
2021/12/30 10:35:42;;;;;;;1.97;0.60;;;15.90;86.20;;;;;;5015983;28;20464;-75
2021/12/30 10:38:11;;;;;;;2.00;0.70;;;15.70;86.10;;;;;;5015661;28;20985;-75
2021/12/30 10:40:41;;;;;;;2.00;0.70;;;15.60;87.60;;;;;;5016156;28;20448;-75
2021/12/30 10:43:25;;;;;;;2.03;0.70;;;15.60;87.20;;;;;;5015990;28;20444;-76
2021/12/30 10:46:05;;;;;;;2.10;0.70;;;15.70;87.80;;;;;;5016083;28;20476;-76
2021/12/30 10:48:32;;;;;;;2.00;0.70;;;15.80;87.10;;;;;;5016279;28;20468;-77
2021/12/30 10:51:14;;;;;;;2.20;0.70;;;15.70;87.30;;;;;;5015170;28;20448;-75
2021/12/30 10:53:41;;;;;;;2.40;0.60;;;15.90;87.00;;;;;;5015660;28;20468;-76
2021/12/30 10:56:26;;;;;;;2.00;0.70;;;16.20;86.60;;;;;;5015388;28;20479;-75
2021/12/30 10:58:55;;;;;;;2.00;0.60;;;16.50;86.60;;;;;;5015563;28;20433;-75
2021/12/30 11:01:26;;;;;;;2.10;0.70;;;17.10;84.30;;;;;;5015599;28;20531;-76
2021/12/30 11:03:56;;;;;;;2.00;0.60;;;18.10;82.00;;;;;;5015554;28;20439;-76
2021/12/30 11:06:23;;;;;;;2.00;0.70;;;18.60;78.10;;;;;;5015071;28;20952;-76
2021/12/30 11:09:03;;;;;;;2.07;0.70;;;18.70;77.80;;;;;;5016141;28;20522;-76
2021/12/30 11:11:30;;;;;;;2.00;0.60;;;18.70;77.90;;;;;;5015320;28;20436;-76
2021/12/30 11:13:59;;;;;;;2.20;0.70;;;18.40;77.60;;;;;;5015175;28;20487;-76
2021/12/30 11:16:27;;;;;;;2.00;0.60;;;17.80;79.00;;;;;;5014944;28;20844;-76
2021/12/30 11:18:56;;;;;;;2.00;0.50;;;17.50;80.30;;;;;;5014715;28;20993;-76
2021/12/30 11:21:36;;;;;;;2.03;0.60;;;17.40;80.90;;;;;;5014907;28;20452;-75
2021/12/30 11:24:03;;;;;;;2.00;0.60;;;17.40;80.70;;;;;;5014930;28;20483;-76
2021/12/30 11:26:30;;;;;;;2.00;0.70;;;17.10;81.60;;;;;;5015793;28;20471;-76
2021/12/30 11:28:56;;;;;;;1.97;0.60;;;16.90;82.90;;;;;;5014977;28;20518;-76
2021/12/30 11:31:23;;;;;;;1.90;0.60;;;17.10;83.10;;;;;;5014916;28;20444;-76
2021/12/30 11:33:52;;;;;;;2.00;0.60;;;17.20;83.20;;;;;;5014772;28;20574;-76
2021/12/30 11:36:19;;;;;;;2.00;0.60;;;17.30;81.90;;;;;;5014945;28;20530;-76
2021/12/30 11:38:46;;;;;;;1.97;0.60;;;17.30;81.50;;;;;;5015780;28;20457;-76
2021/12/30 11:41:18;;;;;;;2.00;0.50;;;17.40;81.80;;;;;;5014864;28;20448;-76
2021/12/30 11:43:46;;;;;;;1.97;0.60;;;17.50;81.50;;;;;;5014920;28;20425;-76
2021/12/30 11:46:38;;;;;;;1.93;0.50;;;17.60;81.00;;;;;;5015771;28;20472;-76
2021/12/30 11:49:07;;;;;;;2.00;0.70;;;17.70;81.20;;;;;;5014693;28;20459;-76
2021/12/30 11:51:49;;;;;;;2.67;0.60;;;17.90;80.20;;;;;;5014379;28;20445;-76
2021/12/30 11:54:36;;;;;;;2.00;0.60;;;18.10;80.30;;;;;;5014430;28;20609;-76
2021/12/30 11:57:29;;;;;;;2.00;0.60;;;17.90;79.50;;;;;;5014608;28;20472;-76
2021/12/30 11:59:58;;;;;;;2.00;0.60;;;17.90;80.00;;;;;;5014426;28;20448;-76
2021/12/30 12:02:36;;;;;;;2.00;0.60;;;17.90;78.20;;;;;;5014152;28;20452;-76
2021/12/30 12:05:42;;;;;;;1.93;0.60;;;17.90;79.30;;;;;;5014306;28;20455;-76
2021/12/30 12:08:10;;;;;;;2.00;0.60;;;17.80;78.80;;;;;;5014266;28;20526;-76
2021/12/30 12:10:37;;;;;;;2.10;0.60;;;17.80;79.40;;;;;;5014248;28;20448;-76
2021/12/30 12:13:35;;;;;;;2.30;0.90;;;17.80;78.80;;;;;;5014136;28;20534;-75
2021/12/30 12:16:03;;;;;;;3.13;0.60;;;17.50;79.70;;;;;;5013988;28;20534;-76
2021/12/30 12:18:30;;;;;;;2.00;0.60;;;17.30;80.70;;;;;;5014120;28;20540;-76
2021/12/30 12:21:00;;;;;;;2.00;0.60;;;18.00;79.80;;;;;;5014089;28;20862;-76
2021/12/30 12:23:34;;;;;;;2.00;0.60;;;18.90;75.60;;;;;;5014025;28;20449;-75
2021/12/30 12:26:14;;;;;;;2.00;0.60;;;19.90;74.40;;;;;;5013991;28;20480;-76
2021/12/30 12:28:41;;;;;;;2.00;0.60;;;21.20;68.90;;;;;;5013756;28;20530;-76
2021/12/30 12:31:10;;;;;;;2.10;0.60;;;21.00;68.30;;;;;;5013830;28;20856;-76
2021/12/30 12:33:39;;;;;;;1.93;0.57;;;20.00;71.20;;;;;;5013751;28;20480;-76
2021/12/30 12:36:15;;;;;;;1.93;0.60;;;19.50;72.20;;;;;;5013750;28;20476;-75
2021/12/30 12:38:45;;;;;;;2.60;0.60;;;19.20;73.80;;;;;;5013845;28;20495;-75
2021/12/30 12:41:23;;;;;;;2.00;0.60;;;18.70;74.80;;;;;;5013798;28;20451;-76
2021/12/30 12:43:52;;;;;;;2.00;0.60;;;18.30;76.40;;;;;;5014194;28;20498;-76
2021/12/30 12:46:38;;;;;;;1.97;0.60;;;18.10;77.30;;;;;;5013441;28;21038;-76
2021/12/30 12:49:06;;;;;;;2.00;0.60;;;17.80;78.50;;;;;;5013696;28;20436;-76
2021/12/30 12:51:35;;;;;;;2.10;0.60;;;17.40;78.50;;;;;;5013598;28;20838;-76
2021/12/30 12:54:05;;;;;;;2.00;0.60;;;17.10;80.00;;;;;;5013779;28;20480;-76
2021/12/30 12:56:39;;;;;;;2.07;0.60;;;16.90;80.80;;;;;;5014494;28;20563;-76
2021/12/30 12:59:12;;;;;;;2.00;0.60;;;16.80;81.20;;;;;;5013561;28;20455;-76
2021/12/30 13:01:39;;;;;;;2.00;0.60;;;16.70;82.20;;;;;;5013572;28;20531;-76
2021/12/30 13:04:08;;;;;;;1.97;0.60;;;16.70;81.40;;;;;;5013487;28;20494;-75
2021/12/30 13:06:41;;;;;;;1.90;0.60;;;16.70;81.90;;;;;;5013758;28;20472;-76
2021/12/30 13:09:10;;;;;;;2.00;0.60;;;16.90;81.60;;;;;;5013523;28;20444;-76
2021/12/30 13:11:39;;;;;;;2.00;0.60;;;17.40;80.80;;;;;;5013450;28;20765;-76
2021/12/30 13:14:18;;;;;;;2.00;0.60;;;17.70;78.80;;;;;;5015322;28;20526;-76
2021/12/30 13:16:46;;;;;;;2.07;0.57;;;17.90;78.30;;;;;;5017109;28;20574;-76
2021/12/30 13:19:15;;;;;;;2.00;0.60;;;17.80;78.20;;;;;;5017382;28;20498;-76
2021/12/30 13:21:55;;;;;;;2.00;0.60;;;17.40;78.80;;;;;;5017412;28;20450;-76
2021/12/30 13:24:44;;;;;;;2.03;0.63;;;17.30;80.00;;;;;;5017368;28;20428;-76
2021/12/30 13:27:32;;;;;;;2.00;0.60;;;17.20;79.60;;;;;;5013194;28;20479;-76
2021/12/30 13:30:01;;;;;;;2.00;0.60;;;17.00;80.40;;;;;;5017248;28;20451;-76
2021/12/30 13:32:30;;;;;;;2.00;0.60;;;16.90;81.10;;;;;;5017041;28;20448;-76
2021/12/30 13:35:02;;;;;;;2.00;0.60;;;16.90;81.20;;;;;;5016574;28;20476;-76
2021/12/30 13:37:33;;;;;;;2.00;0.60;;;17.00;80.90;;;;;;5016957;28;20475;-76
2021/12/30 13:40:01;;;;;;;2.00;0.70;;;17.00;81.00;;;;;;5016907;28;20436;-75
2021/12/30 13:42:30;;;;;;;2.20;0.80;;;17.00;81.10;;;;;;5017128;28;20455;-75
2021/12/30 13:45:00;;;;;;;2.00;0.60;;;17.10;81.10;;;;;;5016958;28;20446;-76
2021/12/30 13:47:32;;;;;;;2.47;0.60;;;16.90;81.30;;;;;;5016880;28;20468;-76
2021/12/30 13:49:59;;;;;;;2.00;0.60;;;16.90;82.00;;;;;;5016823;28;20443;-76
2021/12/30 13:52:29;;;;;;;2.00;0.60;;;16.90;81.80;;;;;;5016884;28;20506;-76
2021/12/30 13:55:19;;;;;;;2.00;0.67;;;16.90;81.60;;;;;;5016634;28;20484;-76
2021/12/30 13:57:48;;;;;;;2.00;0.60;;;16.80;82.10;;;;;;5016699;28;20432;-76
2021/12/30 14:00:18;;;;;;;2.20;0.70;;;16.60;83.00;;;;;;5016599;28;20448;-76
2021/12/30 14:02:45;;;;;;;2.00;0.60;;;16.60;82.60;;;;;;5016553;28;20448;-75
2021/12/30 14:05:14;;;;;;;2.00;0.70;;;16.60;82.60;;;;;;5016110;28;20986;-76
2021/12/30 14:07:44;;;;;;;2.00;0.60;;;16.40;83.50;;;;;;5016163;28;20939;-76
2021/12/30 14:10:13;;;;;;;1.93;0.60;;;16.40;83.50;;;;;;5016240;28;20839;-76
2021/12/30 14:12:54;;;;;;;2.00;0.60;;;16.50;83.20;;;;;;5016420;28;20451;-76
2021/12/30 14:15:22;;;;;;;2.00;0.60;;;16.50;82.40;;;;;;5016092;28;20476;-76
2021/12/30 14:17:58;;;;;;;2.00;0.60;;;16.40;83.10;;;;;;5016068;28;20904;-76
2021/12/30 14:20:25;;;;;;;2.07;0.70;;;16.30;83.30;;;;;;5016298;28;20440;-76
2021/12/30 14:22:52;;;;;;;2.30;0.70;;;16.30;83.70;;;;;;5016217;28;20451;-75
2021/12/30 14:25:28;;;;;;;2.00;0.60;;;16.30;83.20;;;;;;5016102;28;20563;-76
2021/12/30 14:27:56;;;;;;;2.00;0.60;;;16.40;83.30;;;;;;5015897;28;20903;-75
2021/12/30 14:30:23;;;;;;;2.10;0.70;;;16.30;83.40;;;;;;5015824;28;20873;-76
2021/12/30 14:32:50;;;;;;;2.00;0.60;;;16.20;83.20;;;;;;5016103;28;20452;-76
2021/12/30 14:35:16;;;;;;;2.00;0.60;;;16.20;84.20;;;;;;5015512;28;20484;-76
2021/12/30 14:37:44;;;;;;;2.00;0.60;;;16.30;83.80;;;;;;5015954;28;20451;-75
2021/12/30 14:40:17;;;;;;;2.03;0.63;;;16.00;84.00;;;;;;5015933;28;20551;-76
2021/12/30 14:42:45;;;;;;;2.30;0.80;;;16.10;84.60;;;;;;5016148;28;20439;-76
2021/12/30 14:45:15;;;;;;;2.20;0.70;;;16.20;84.00;;;;;;5015318;28;20494;-76
2021/12/30 14:47:46;;;;;;;2.20;0.80;;;16.00;83.80;;;;;;5015740;28;20507;-76
2021/12/30 14:50:15;;;;;;;2.00;0.70;;;15.80;84.90;;;;;;5015924;28;20436;-76
2021/12/30 14:52:44;;;;;;;2.00;0.60;;;15.90;84.80;;;;;;5015773;28;20452;-76
2021/12/30 14:55:13;;;;;;;2.30;0.80;;;15.80;85.20;;;;;;5015732;28;20535;-75
2021/12/30 14:57:40;;;;;;;2.20;0.77;;;15.80;85.10;;;;;;5015633;28;20498;-76
2021/12/30 15:00:12;;;;;;;2.00;0.70;;;15.80;85.00;;;;;;5015533;28;20457;-76
2021/12/30 15:02:39;;;;;;;2.00;0.60;;;15.90;84.90;;;;;;5015543;28;20428;-76
2021/12/30 15:05:06;;;;;;;2.03;0.70;;;16.00;84.70;;;;;;5016224;28;20455;-76
2021/12/30 15:07:33;;;;;;;2.03;0.70;;;16.00;84.40;;;;;;5015342;28;20542;-76
2021/12/30 15:10:04;;;;;;;2.00;0.67;;;15.90;84.90;;;;;;5015559;28;20451;-76
2021/12/30 15:12:32;;;;;;;2.00;0.70;;;16.00;84.70;;;;;;5015224;28;20428;-76
2021/12/30 15:15:01;;;;;;;2.00;0.70;;;16.10;84.20;;;;;;5014997;28;20513;-75
2021/12/30 15:17:29;;;;;;;2.10;0.73;;;16.00;84.50;;;;;;5014931;28;20487;-75
2021/12/30 15:19:56;;;;;;;2.10;0.70;;;16.10;84.20;;;;;;5014800;28;20457;-76
2021/12/30 15:22:23;;;;;;;2.20;0.70;;;16.20;83.80;;;;;;5015093;28;20456;-76
2021/12/30 15:24:50;;;;;;;2.00;0.70;;;16.10;84.10;;;;;;5015037;28;20467;-75
2021/12/30 15:27:17;;;;;;;2.00;0.70;;;16.20;83.60;;;;;;5014946;28;20531;-76
2021/12/30 15:29:45;;;;;;;2.00;0.60;;;16.30;83.80;;;;;;5014964;28;20452;-75
2021/12/30 15:32:13;;;;;;;2.30;0.70;;;16.40;83.80;;;;;;5014916;28;20444;-76
2021/12/30 15:34:41;;;;;;;2.20;0.80;;;16.40;83.80;;;;;;5014797;28;20534;-75
2021/12/30 15:37:08;;;;;;;1.90;0.60;;;16.10;84.80;;;;;;5014173;28;20522;-76
2021/12/30 15:39:36;;;;;;;2.00;0.63;;;16.20;84.90;;;;;;5014378;28;20460;-76
2021/12/30 15:42:03;;;;;;;2.00;0.60;;;16.30;84.50;;;;;;5014676;28;20866;-76
2021/12/30 15:44:29;;;;;;;2.00;0.70;;;16.40;84.10;;;;;;5014640;28;20444;-75
2021/12/30 15:46:56;;;;;;;2.10;0.70;;;16.40;83.70;;;;;;5014701;28;20886;-76
2021/12/30 15:49:23;;;;;;;2.10;0.70;;;16.50;83.20;;;;;;5014369;28;20495;-76
2021/12/30 15:51:51;;;;;;;2.10;0.70;;;16.30;83.50;;;;;;5014505;28;20531;-76
2021/12/30 15:54:21;;;;;;;2.20;0.80;;;16.30;83.40;;;;;;5014377;28;20488;-76
2021/12/30 15:56:48;;;;;;;2.03;0.70;;;16.10;84.40;;;;;;5014352;28;20507;-76
2021/12/30 15:59:16;;;;;;;2.50;1.10;;;16.20;84.20;;;;;;5014113;28;20982;-76
2021/12/30 16:01:43;;;;;;;2.20;0.73;;;16.20;83.90;;;;;;5014086;28;21007;-76
2021/12/30 16:04:11;;;;;;;2.00;0.70;;;16.10;83.90;;;;;;5014352;28;20535;-76
2021/12/30 16:06:40;;;;;;;2.10;0.80;;;16.20;83.70;;;;;;5014400;28;20468;-76
2021/12/30 16:09:10;;;;;;;2.00;0.70;;;16.20;83.70;;;;;;5014225;28;20448;-76
2021/12/30 16:11:37;;;;;;;2.00;0.70;;;16.30;83.50;;;;;;5014249;28;20452;-76
2021/12/30 16:14:03;;;;;;;2.07;0.67;;;16.40;83.10;;;;;;5013816;28;20453;-76
2021/12/30 16:16:31;;;;;;;2.00;0.70;;;16.40;82.50;;;;;;5139864;22;20521;-75
2021/12/30 16:18:58;;;;;;;2.10;0.77;;;16.20;83.10;;;;;;5033882;28;20505;-75
2021/12/30 16:21:25;;;;;;;2.00;0.60;;;16.10;83.60;;;;;;5033564;28;20873;-75
2021/12/30 16:23:51;;;;;;;2.50;0.83;;;16.20;83.30;;;;;;5033433;28;20876;-75
2021/12/30 16:26:19;;;;;;;2.10;0.80;;;16.40;83.00;;;;;;5033631;28;20899;-75
2021/12/30 16:28:46;;;;;;;2.00;0.70;;;16.50;82.90;;;;;;5033729;28;20444;-75
2021/12/30 16:31:13;;;;;;;2.00;0.60;;;16.30;83.00;;;;;;5033748;28;20454;-75
2021/12/30 16:33:40;;;;;;;2.00;0.70;;;16.30;83.40;;;;;;5033588;28;20447;-75
2021/12/30 16:36:07;;;;;;;1.90;0.60;;;16.40;83.40;;;;;;5033640;28;20483;-75
2021/12/30 16:38:35;;;;;;;2.00;0.70;;;16.50;83.20;;;;;;5033659;28;20509;-75
2021/12/30 16:41:03;;;;;;;2.00;0.60;;;16.50;83.10;;;;;;5033605;28;20451;-75
2021/12/30 16:43:32;;;;;;;2.10;0.70;;;16.50;82.80;;;;;;5033576;28;20506;-75
2021/12/30 16:46:00;;;;;;;2.00;0.60;;;16.50;83.00;;;;;;5033490;28;20447;-75
2021/12/30 16:48:28;;;;;;;2.00;0.70;;;16.60;83.00;;;;;;5032721;28;20447;-75
2021/12/30 16:50:55;;;;;;;2.10;0.70;;;16.50;82.90;;;;;;5033482;28;20461;-75
2021/12/30 16:53:21;;;;;;;2.07;0.60;;;16.40;83.20;;;;;;5033416;28;20458;-75
2021/12/30 16:55:48;;;;;;;2.00;0.70;;;16.40;83.00;;;;;;5033182;28;20482;-74
2021/12/30 16:58:15;;;;;;;2.00;0.60;;;16.50;82.90;;;;;;5033124;28;20446;-75
2021/12/30 17:00:43;;;;;;;2.00;0.60;;;16.50;82.70;;;;;;5033442;28;20447;-75